Aldan, Pennsylvania
Current Conditions -  °F | °C
As of 12:54 AM on Friday 28 Nov 2014 (Local Time) from KPHL Reporting Station
Few Clouds Few Clouds  
Wind Chill: 29°   Ceiling: Unl
Heat Index: 33°   Visibility: 10mi
Dew Point: 26°   Wind: 5mph
Humidity: 75%   Direction: 310°NW
Pressure: 30.12"   Gusts: NA
Location:  39.9228°N, 75.2984°W
Report Text: KPHL 280554Z 31004KT 10SM FEW060 01/M03 A3012 RMK AO2 SLP197 T00061033 10028 21011 58001 $
Loading
Personal Weather Stations






























Interactive Weather Map New forecast layout! Learn more

10-Day Weather Forecast

Advertisements
Track Severe Weather on mobile